Time;durP1;ratioP1;P1;durP2;ratioP2;P2;SDS_P1;SDS_P2;PMS_P1;PMS_P2;Temp;Humidity;BMP_temperature;BMP_pressure;BME280_temperature;BME280_humidity;BME280_pressure;Samples;Min_cycle;Max_cycle;Signal;HPM_P1;HPM_P2
2022/12/28 00:01:34;;;;;;;9.10;4.43;;;5.20;99.90;;;;;;5098199;28;20052;-65
2022/12/28 00:04:04;;;;;;;8.70;3.72;;;5.20;99.90;;;;;;5115664;28;20135;-65
2022/12/28 00:06:31;;;;;;;10.00;4.57;;;5.20;99.90;;;;;;5097954;28;20089;-65
2022/12/28 00:09:00;;;;;;;10.05;4.47;;;5.20;99.90;;;;;;5131082;27;20364;-65
2022/12/28 00:11:28;;;;;;;8.32;4.20;;;5.20;99.90;;;;;;5116145;27;20099;-66
2022/12/28 00:13:56;;;;;;;9.50;4.38;;;5.10;99.90;;;;;;5115860;27;20048;-66
2022/12/28 00:16:28;;;;;;;6.63;3.80;;;5.20;99.90;;;;;;5097619;27;20056;-66
2022/12/28 00:18:56;;;;;;;12.65;5.15;;;5.20;99.90;;;;;;5111260;27;20036;-66
2022/12/28 00:21:22;;;;;;;9.63;3.95;;;5.20;99.90;;;;;;5115936;27;20535;-66
2022/12/28 00:23:51;;;;;;;8.57;4.45;;;5.20;99.90;;;;;;5135463;27;20043;-66
2022/12/28 00:26:20;;;;;;;13.30;4.82;;;5.10;99.90;;;;;;5134639;27;20045;-66
2022/12/28 00:28:47;;;;;;;10.43;4.93;;;5.20;99.90;;;;;;5114548;27;21335;-66
2022/12/28 00:31:15;;;;;;;11.18;5.03;;;5.20;99.90;;;;;;5135207;27;20092;-66
2022/12/28 00:33:42;;;;;;;10.27;4.70;;;5.20;99.90;;;;;;5131932;27;20136;-66
2022/12/28 00:36:16;;;;;;;6.78;4.55;;;5.20;99.90;;;;;;5115827;27;20487;-65
2022/12/28 00:38:43;;;;;;;9.27;5.00;;;5.20;99.90;;;;;;5114428;27;20056;-65
2022/12/28 00:41:11;;;;;;;11.48;5.30;;;5.20;99.90;;;;;;5115142;27;20066;-65
2022/12/28 00:43:39;;;;;;;10.95;5.03;;;5.30;99.90;;;;;;5134742;27;20413;-66
2022/12/28 00:46:06;;;;;;;8.75;5.32;;;5.30;99.90;;;;;;5114712;27;20089;-66
2022/12/28 00:48:33;;;;;;;9.15;5.05;;;5.30;99.90;;;;;;5132597;27;20039;-67
2022/12/28 00:51:04;;;;;;;11.18;5.15;;;5.30;99.90;;;;;;5134815;27;20100;-64
2022/12/28 00:53:30;;;;;;;;;;;5.30;99.90;;;;;;5107075;28;20047;-63
2022/12/28 00:56:05;;;;;;;11.05;5.40;;;5.30;99.90;;;;;;5118930;27;20294;-64
2022/12/28 00:58:32;;;;;;;9.18;4.97;;;5.30;99.90;;;;;;5109846;27;20552;-64
2022/12/28 01:01:00;;;;;;;11.70;5.72;;;5.30;99.90;;;;;;5134154;27;20074;-65
2022/12/28 01:03:27;;;;;;;7.40;5.07;;;5.40;99.90;;;;;;5115016;27;20445;-65
2022/12/28 01:05:54;;;;;;;9.27;5.05;;;5.40;99.90;;;;;;5113817;27;20051;-65
2022/12/28 01:08:22;;;;;;;11.63;4.78;;;5.40;99.90;;;;;;5133612;27;20039;-64
2022/12/28 01:10:48;;;;;;;8.45;4.70;;;5.40;99.90;;;;;;5096729;27;20452;-65
2022/12/28 01:13:15;;;;;;;10.20;4.47;;;5.40;99.90;;;;;;5096235;27;20051;-64
2022/12/28 01:15:42;;;;;;;11.23;4.93;;;5.40;99.90;;;;;;5095976;28;20108;-64
2022/12/28 01:18:10;;;;;;;12.32;4.43;;;5.40;99.90;;;;;;5095841;27;20051;-64
2022/12/28 01:20:39;;;;;;;9.50;4.53;;;5.40;99.90;;;;;;5096110;27;20043;-63
2022/12/28 01:23:06;;;;;;;7.13;4.97;;;5.40;99.90;;;;;;5096007;27;20055;-64
2022/12/28 01:25:33;;;;;;;9.55;4.60;;;5.40;99.90;;;;;;5096114;28;20580;-64
2022/12/28 01:27:59;;;;;;;10.50;5.00;;;5.40;99.90;;;;;;5095715;28;20051;-64
2022/12/28 01:30:26;;;;;;;9.15;4.43;;;5.50;99.90;;;;;;5097318;27;20039;-65
2022/12/28 01:32:53;;;;;;;9.30;4.90;;;5.40;99.90;;;;;;5133973;27;20055;-64
2022/12/28 01:35:21;;;;;;;9.40;5.25;;;5.50;99.90;;;;;;5112848;27;20067;-64
2022/12/28 01:37:48;;;;;;;10.35;4.72;;;5.40;99.90;;;;;;5115207;27;20047;-64
2022/12/28 01:40:15;;;;;;;7.95;5.05;;;5.40;99.90;;;;;;5132924;27;20100;-64
2022/12/28 01:42:42;;;;;;;8.95;5.28;;;5.40;99.90;;;;;;5110027;28;20052;-64
2022/12/28 01:45:19;;;;;;;10.57;6.30;;;5.40;99.90;;;;;;5113983;27;20101;-64
2022/12/28 01:47:47;;;;;;;8.00;5.32;;;5.40;99.90;;;;;;5114241;27;20051;-63
2022/12/28 01:50:17;;;;;;;13.73;5.65;;;5.40;99.90;;;;;;5094993;28;20434;-64
2022/12/28 01:52:49;;;;;;;11.43;6.43;;;5.40;99.90;;;;;;5110324;27;20047;-63
2022/12/28 01:55:19;;;;;;;12.00;5.82;;;5.40;99.90;;;;;;5114526;27;20100;-63
2022/12/28 01:57:50;;;;;;;8.02;5.38;;;5.40;99.90;;;;;;5132718;27;20054;-64
2022/12/28 02:00:18;;;;;;;9.07;5.35;;;5.40;99.90;;;;;;5113694;27;20376;-64
2022/12/28 02:02:49;;;;;;;8.18;5.10;;;5.40;99.90;;;;;;5095601;27;20074;-64
2022/12/28 02:05:17;;;;;;;7.80;5.90;;;5.40;99.90;;;;;;5113276;27;20084;-64
2022/12/28 02:07:51;;;;;;;11.63;5.65;;;5.50;99.90;;;;;;5113922;27;20499;-64
2022/12/28 02:10:20;;;;;;;13.80;6.40;;;5.40;99.90;;;;;;5095340;27;20081;-64
2022/12/28 02:12:47;;;;;;;13.40;5.72;;;5.50;99.90;;;;;;5133072;27;20490;-64
2022/12/28 02:15:14;;;;;;;9.25;5.97;;;5.50;99.90;;;;;;5133017;27;20043;-64
2022/12/28 02:17:41;;;;;;;13.13;6.35;;;5.60;99.90;;;;;;5132538;27;20435;-64
2022/12/28 02:20:09;;;;;;;9.80;5.65;;;5.40;99.90;;;;;;5113732;27;20042;-64
2022/12/28 02:23:11;;;;;;;9.93;6.40;;;5.50;99.90;;;;;;5113060;27;20043;-64
2022/12/28 02:26:22;;;;;;;11.43;6.25;;;5.50;99.90;;;;;;5094597;28;20497;-64
2022/12/28 02:29:22;;;;;;;10.93;6.45;;;5.50;99.90;;;;;;5108090;27;20051;-64
2022/12/28 02:31:58;;;;;;;14.30;6.88;;;5.50;99.90;;;;;;5113026;28;20039;-64
2022/12/28 02:34:30;;;;;;;12.50;7.07;;;5.50;99.90;;;;;;5095192;28;20051;-64
2022/12/28 02:37:08;;;;;;;8.38;6.15;;;5.50;99.90;;;;;;5095418;27;20795;-64
2022/12/28 02:39:39;;;;;;;11.35;6.40;;;5.50;99.90;;;;;;5093864;27;20047;-63
2022/12/28 02:42:09;;;;;;;9.43;5.95;;;5.50;99.90;;;;;;5113479;27;20044;-63
2022/12/28 02:50:10;;;;;;;8.80;5.82;;;5.50;99.90;;;;;;5112493;28;20173;-65
2022/12/28 02:53:05;;;;;;;9.55;6.10;;;5.50;99.90;;;;;;5094272;28;20544;-64
2022/12/28 02:58:53;;;;;;;9.10;5.80;;;5.50;99.90;;;;;;5094746;28;20095;-64
2022/12/28 03:01:41;;;;;;;9.10;5.88;;;5.60;99.90;;;;;;5093849;28;20051;-64
2022/12/28 03:04:17;;;;;;;13.52;6.30;;;5.60;99.90;;;;;;5109611;28;20051;-64
2022/12/28 03:09:39;;;;;;;10.32;6.93;;;5.60;99.90;;;;;;5094652;28;20399;-64
2022/12/28 03:12:10;;;;;;;10.07;6.55;;;5.60;99.90;;;;;;5111562;28;20059;-64
2022/12/28 03:14:42;;;;;;;9.80;6.63;;;5.70;99.90;;;;;;5112824;28;20047;-64
2022/12/28 03:31:13;;;;;;;9.05;5.95;;;5.90;99.90;;;;;;5094317;28;20067;-64
2022/12/28 03:33:44;;;;;;;9.05;6.43;;;6.00;99.90;;;;;;5112834;28;20047;-64
2022/12/28 03:36:17;;;;;;;9.88;6.68;;;6.00;99.90;;;;;;5112171;28;20043;-64
2022/12/28 03:38:51;;;;;;;10.48;6.88;;;6.00;99.90;;;;;;5093855;28;20063;-64
2022/12/28 03:41:27;;;;;;;12.40;6.35;;;6.00;99.90;;;;;;5112589;28;20399;-64
2022/12/28 03:43:59;;;;;;;11.63;6.88;;;6.10;99.90;;;;;;5094592;28;20473;-64
2022/12/28 03:46:30;;;;;;;8.25;6.55;;;6.10;99.90;;;;;;5123928;28;20121;-65
2022/12/28 03:49:00;;;;;;;7.93;6.40;;;6.10;99.90;;;;;;5127282;28;20464;-65
2022/12/28 03:51:29;;;;;;;9.45;6.80;;;6.10;99.90;;;;;;5113365;28;20043;-65
2022/12/28 03:53:56;;;;;;;10.55;6.95;;;6.10;99.90;;;;;;5112474;28;20449;-64
2022/12/28 03:56:25;;;;;;;8.73;6.40;;;6.10;99.90;;;;;;5111203;28;20044;-65
2022/12/28 03:58:52;;;;;;;8.73;6.15;;;6.20;99.90;;;;;;5112612;28;20046;-65
2022/12/28 04:01:19;;;;;;;9.15;6.60;;;6.20;99.90;;;;;;5112308;27;20082;-65
2022/12/28 04:03:47;;;;;;;8.45;6.40;;;6.20;99.90;;;;;;5097525;28;20043;-64
2022/12/28 04:06:16;;;;;;;9.52;5.72;;;6.20;99.90;;;;;;5116238;27;20092;-65
2022/12/28 04:08:44;;;;;;;8.27;5.87;;;6.30;99.90;;;;;;5116354;27;20047;-64
2022/12/28 04:11:11;;;;;;;10.57;6.45;;;6.20;99.90;;;;;;5097081;28;20043;-63
2022/12/28 04:13:38;;;;;;;7.60;6.38;;;6.30;99.90;;;;;;5097611;28;20055;-63
2022/12/28 04:16:07;;;;;;;7.78;5.88;;;6.30;99.90;;;;;;5097523;28;20043;-63
2022/12/28 04:18:34;;;;;;;7.50;6.43;;;6.30;99.90;;;;;;5099320;28;20078;-63
2022/12/28 04:21:01;;;;;;;7.75;5.88;;;6.30;99.90;;;;;;5097522;27;20754;-64
2022/12/28 04:23:31;;;;;;;6.28;5.32;;;6.30;99.90;;;;;;5097783;28;20051;-64
2022/12/28 04:25:59;;;;;;;8.70;6.22;;;6.30;99.90;;;;;;5097538;28;20093;-64
2022/12/28 04:28:27;;;;;;;7.38;5.78;;;6.40;99.90;;;;;;5115758;27;20092;-64
2022/12/28 04:30:54;;;;;;;7.80;5.65;;;6.30;99.90;;;;;;5097035;28;20047;-64
2022/12/28 04:33:21;;;;;;;6.88;5.20;;;6.40;99.90;;;;;;5097521;28;20044;-64
2022/12/28 04:35:47;;;;;;;9.82;5.32;;;6.40;99.90;;;;;;5097510;27;20051;-64
2022/12/28 04:38:14;;;;;;;7.72;5.78;;;6.40;99.90;;;;;;5096866;28;20409;-65
2022/12/28 04:40:43;;;;;;;7.80;5.60;;;6.40;99.90;;;;;;5096818;28;20060;-64
2022/12/28 04:43:10;;;;;;;8.90;5.55;;;6.40;99.90;;;;;;5115699;27;20054;-64
2022/12/28 04:45:37;;;;;;;6.63;5.40;;;6.50;99.90;;;;;;5096541;28;20384;-64
2022/12/28 04:48:05;;;;;;;7.43;5.32;;;6.40;99.90;;;;;;5097000;28;20054;-65
2022/12/28 04:50:32;;;;;;;7.22;6.00;;;6.50;99.90;;;;;;5115187;27;20043;-64
2022/12/28 04:52:59;;;;;;;7.75;5.88;;;6.50;99.90;;;;;;5096635;27;20043;-64
2022/12/28 04:55:26;;;;;;;9.50;6.68;;;6.50;99.90;;;;;;5096832;27;20048;-64
2022/12/28 04:57:54;;;;;;;8.90;6.40;;;6.50;99.90;;;;;;5114073;27;20052;-64
2022/12/28 05:00:21;;;;;;;8.93;6.38;;;6.50;99.90;;;;;;5133645;27;20089;-64
2022/12/28 05:02:48;;;;;;;8.50;5.90;;;6.60;99.90;;;;;;5114580;27;20093;-65
2022/12/28 05:05:15;;;;;;;9.52;6.70;;;6.60;99.90;;;;;;5115657;27;20502;-64
2022/12/28 05:07:42;;;;;;;9.88;7.18;;;6.60;99.90;;;;;;5133949;27;20551;-64
2022/12/28 05:10:09;;;;;;;14.50;7.07;;;6.60;99.90;;;;;;5134165;27;20052;-64
2022/12/28 05:12:36;;;;;;;9.60;6.80;;;6.60;99.90;;;;;;5134223;27;20073;-64
2022/12/28 05:15:05;;;;;;;9.15;7.13;;;6.70;99.90;;;;;;5132951;27;20563;-64
2022/12/28 05:17:32;;;;;;;8.23;6.95;;;6.70;99.90;;;;;;5115283;27;20498;-64
2022/12/28 05:19:59;;;;;;;8.40;7.05;;;6.80;99.90;;;;;;5133659;27;20072;-64
2022/12/28 05:22:26;;;;;;;9.23;7.00;;;6.80;99.90;;;;;;5115714;27;20445;-64
2022/12/28 05:24:53;;;;;;;9.40;7.25;;;6.80;99.90;;;;;;5114714;27;20445;-64
2022/12/28 05:27:20;;;;;;;10.65;7.40;;;6.80;99.90;;;;;;5110359;27;20051;-65
2022/12/28 05:29:47;;;;;;;9.00;6.65;;;6.80;99.90;;;;;;5133991;27;20099;-65
2022/12/28 05:32:15;;;;;;;10.52;8.15;;;6.80;99.90;;;;;;5134186;27;20047;-65
2022/12/28 05:34:42;;;;;;;10.85;8.23;;;6.90;99.90;;;;;;5133314;27;20072;-65
2022/12/28 05:37:09;;;;;;;10.95;8.70;;;6.80;99.90;;;;;;5114170;27;20062;-65
2022/12/28 05:39:36;;;;;;;14.63;9.25;;;6.90;99.90;;;;;;5112387;27;20055;-65
2022/12/28 05:42:03;;;;;;;11.73;9.30;;;6.90;99.90;;;;;;5113251;27;20492;-65
2022/12/28 05:44:31;;;;;;;11.25;9.10;;;6.90;99.90;;;;;;5133992;27;20051;-64
2022/12/28 05:46:58;;;;;;;10.20;8.18;;;7.00;99.90;;;;;;5114514;27;20104;-64
2022/12/28 05:49:26;;;;;;;12.50;10.13;;;7.00;99.90;;;;;;5133206;27;20699;-64
2022/12/28 05:51:53;;;;;;;14.68;9.90;;;7.00;99.90;;;;;;5115024;27;20047;-64
2022/12/28 05:54:20;;;;;;;16.15;10.93;;;7.10;99.90;;;;;;5114266;27;20054;-63
2022/12/28 05:56:50;;;;;;;14.85;10.25;;;7.10;99.90;;;;;;5113699;27;20441;-64
2022/12/28 05:59:17;;;;;;;12.27;10.13;;;7.20;99.90;;;;;;5095781;28;20407;-64
2022/12/28 06:01:45;;;;;;;15.15;11.18;;;7.10;99.90;;;;;;5095481;28;20503;-64
2022/12/28 06:04:16;;;;;;;14.43;10.55;;;7.20;99.90;;;;;;5113468;27;20061;-64
2022/12/28 06:06:45;;;;;;;13.98;10.63;;;7.20;99.90;;;;;;5113947;27;20567;-64
2022/12/28 06:09:12;;;;;;;17.40;11.55;;;7.20;99.90;;;;;;5113198;28;20048;-64
2022/12/28 06:11:40;;;;;;;16.30;10.65;;;7.20;99.90;;;;;;5097696;28;20482;-64
2022/12/28 06:14:07;;;;;;;16.98;10.88;;;7.30;99.90;;;;;;5095494;27;20062;-64
2022/12/28 06:16:36;;;;;;;13.50;10.80;;;7.30;99.90;;;;;;5106951;27;20101;-64
2022/12/28 06:19:06;;;;;;;14.00;10.77;;;7.40;99.90;;;;;;5095169;28;20487;-64
2022/12/28 06:21:34;;;;;;;14.13;10.05;;;7.30;99.90;;;;;;5113518;27;20050;-64
2022/12/28 06:24:04;;;;;;;14.38;9.95;;;7.40;99.90;;;;;;5113376;28;20052;-63
2022/12/28 06:26:33;;;;;;;15.18;9.88;;;7.50;99.90;;;;;;5095292;28;20051;-64
2022/12/28 06:29:01;;;;;;;13.57;9.73;;;7.50;99.90;;;;;;5094771;27;20059;-64
2022/12/28 06:31:30;;;;;;;12.85;10.02;;;7.50;99.90;;;;;;5094655;28;20491;-63
2022/12/28 06:33:59;;;;;;;12.40;9.27;;;7.40;99.90;;;;;;5097198;27;20062;-64
2022/12/28 06:36:28;;;;;;;12.43;8.90;;;7.60;99.90;;;;;;5113509;27;20069;-64
2022/12/28 06:38:58;;;;;;;11.25;8.98;;;7.50;99.90;;;;;;5094048;28;20059;-64
2022/12/28 06:41:27;;;;;;;9.93;7.72;;;7.50;99.90;;;;;;5113414;28;20051;-63
2022/12/28 06:43:55;;;;;;;9.93;8.38;;;7.60;99.90;;;;;;5113308;27;20469;-63
2022/12/28 06:46:24;;;;;;;11.65;8.35;;;7.60;99.90;;;;;;5112602;27;20047;-63
2022/12/28 06:48:51;;;;;;;10.10;8.60;;;7.60;99.90;;;;;;5113012;27;20089;-64
2022/12/28 06:51:19;;;;;;;12.52;8.00;;;7.60;99.90;;;;;;5094356;28;20101;-65
2022/12/28 06:53:48;;;;;;;12.07;8.20;;;7.70;99.90;;;;;;5094632;28;20055;-65
2022/12/28 06:56:16;;;;;;;9.18;8.13;;;7.70;99.90;;;;;;5094819;28;20101;-64
2022/12/28 06:58:46;;;;;;;11.52;8.75;;;7.70;99.90;;;;;;5112736;28;20101;-64
2022/12/28 07:01:14;;;;;;;11.98;7.85;;;7.80;99.90;;;;;;5111938;27;20051;-65
2022/12/28 07:03:42;;;;;;;10.27;7.78;;;7.80;99.90;;;;;;5094788;28;20499;-64
2022/12/28 07:06:09;;;;;;;8.90;8.00;;;7.80;99.90;;;;;;5112104;28;20491;-64
2022/12/28 07:08:36;;;;;;;16.55;9.43;;;7.80;99.90;;;;;;5097993;28;20047;-65
2022/12/28 07:11:04;;;;;;;9.73;8.35;;;7.80;99.90;;;;;;5095150;28;20036;-65
2022/12/28 07:13:31;;;;;;;11.10;9.00;;;7.80;99.90;;;;;;5095524;28;20093;-65
2022/12/28 07:16:02;;;;;;;11.35;7.88;;;7.80;99.90;;;;;;5111102;28;20044;-64
2022/12/28 07:18:29;;;;;;;11.75;7.72;;;7.90;99.90;;;;;;5095361;28;20051;-64
2022/12/28 07:20:59;;;;;;;10.82;8.48;;;7.90;99.90;;;;;;5098100;28;20066;-63
2022/12/28 07:23:28;;;;;;;10.13;8.07;;;7.90;99.90;;;;;;5099976;28;20408;-63
2022/12/28 07:25:56;;;;;;;13.15;8.65;;;7.90;99.90;;;;;;5117057;28;20097;-64
2022/12/28 07:28:23;;;;;;;11.73;8.73;;;7.90;99.90;;;;;;5097401;28;20486;-64
2022/12/28 07:30:50;;;;;;;13.50;8.02;;;7.90;99.90;;;;;;5100188;28;20118;-64
2022/12/28 07:33:18;;;;;;;16.77;9.90;;;8.00;99.90;;;;;;5110914;28;20052;-65
2022/12/28 07:35:45;;;;;;;15.65;9.60;;;8.00;99.90;;;;;;5096145;28;20051;-65
2022/12/28 07:38:12;;;;;;;16.02;9.80;;;8.00;99.90;;;;;;5114019;27;20498;-66
2022/12/28 07:40:39;;;;;;;12.30;9.43;;;8.10;99.90;;;;;;5115984;27;20104;-65
2022/12/28 07:43:06;;;;;;;14.65;9.00;;;8.10;99.90;;;;;;5104141;27;20062;-65
2022/12/28 07:45:33;;;;;;;13.38;9.23;;;8.10;99.90;;;;;;5100546;28;20048;-65
2022/12/28 07:48:00;;;;;;;15.18;9.32;;;8.10;99.90;;;;;;5101398;28;20097;-66
2022/12/28 07:50:28;;;;;;;17.40;8.95;;;8.10;99.90;;;;;;5101007;28;20105;-66
2022/12/28 07:52:55;;;;;;;11.75;8.20;;;8.20;99.90;;;;;;5098687;28;20513;-66
2022/12/28 07:55:23;;;;;;;13.25;8.32;;;8.20;99.90;;;;;;5115309;27;20444;-65
2022/12/28 07:57:51;;;;;;;11.80;8.02;;;8.20;99.90;;;;;;5102723;27;20063;-66
2022/12/28 08:00:19;;;;;;;12.75;8.55;;;8.20;99.90;;;;;;5114313;27;20085;-65
2022/12/28 08:02:45;;;;;;;17.17;8.85;;;8.20;99.90;;;;;;5098419;28;20055;-65
2022/12/28 08:05:12;;;;;;;12.18;8.38;;;8.30;99.90;;;;;;5114195;27;20491;-65
2022/12/28 08:07:41;;;;;;;10.63;8.43;;;8.30;99.90;;;;;;5100984;28;20495;-66
2022/12/28 08:10:08;;;;;;;12.25;7.85;;;8.20;99.90;;;;;;5116463;27;20039;-65
2022/12/28 08:12:35;;;;;;;11.02;8.02;;;8.20;99.90;;;;;;5099256;28;20043;-65
2022/12/28 08:15:02;;;;;;;10.95;8.23;;;8.30;99.90;;;;;;5097865;28;20058;-65
2022/12/28 08:17:29;;;;;;;14.60;8.45;;;8.30;99.90;;;;;;5113562;28;20048;-66
2022/12/28 08:19:56;;;;;;;16.92;10.13;;;8.30;99.90;;;;;;5114235;27;20052;-65
2022/12/28 08:22:23;;;;;;;11.32;8.45;;;8.30;99.90;;;;;;5100385;28;20039;-65
2022/12/28 08:24:52;;;;;;;10.32;8.43;;;8.30;99.90;;;;;;5097426;28;20403;-65
2022/12/28 08:27:19;;;;;;;11.02;8.60;;;8.30;99.90;;;;;;5100605;28;20439;-65
2022/12/28 08:29:46;;;;;;;12.80;9.75;;;8.30;99.90;;;;;;5113482;27;20693;-65
2022/12/28 08:32:13;;;;;;;13.48;9.73;;;8.30;99.90;;;;;;5095228;28;20437;-65
2022/12/28 08:34:40;;;;;;;13.27;9.30;;;8.30;99.90;;;;;;5114869;27;20083;-65
2022/12/28 08:37:06;;;;;;;13.15;8.82;;;8.30;99.90;;;;;;5095544;28;20063;-65
2022/12/28 08:39:33;;;;;;;12.10;9.50;;;8.30;99.90;;;;;;5113798;27;20055;-65
2022/12/28 08:42:02;;;;;;;12.48;9.00;;;8.30;99.90;;;;;;5114015;28;20048;-65
2022/12/28 08:44:29;;;;;;;10.88;8.82;;;8.30;99.90;;;;;;5095422;27;20120;-65
2022/12/28 08:46:57;;;;;;;8.95;7.63;;;8.40;99.90;;;;;;5097760;27;20199;-65
2022/12/28 08:49:23;;;;;;;11.65;8.77;;;8.30;99.90;;;;;;5111553;27;20042;-64
2022/12/28 08:51:50;;;;;;;9.50;7.15;;;8.30;99.90;;;;;;5094534;28;20416;-65
2022/12/28 08:54:17;;;;;;;9.80;7.43;;;8.30;99.90;;;;;;5113926;27;20114;-65
2022/12/28 08:56:45;;;;;;;8.77;6.55;;;8.30;99.90;;;;;;5095247;27;20059;-65
2022/12/28 08:59:17;;;;;;;8.43;5.82;;;8.40;99.90;;;;;;5095887;27;20051;-65
2022/12/28 09:01:44;;;;;;;7.03;6.15;;;8.40;99.90;;;;;;5116351;27;20100;-65
2022/12/28 09:04:14;;;;;;;8.75;5.82;;;8.40;99.90;;;;;;5113800;27;20122;-65
2022/12/28 09:06:41;;;;;;;6.70;5.10;;;8.40;99.90;;;;;;5095170;28;20059;-66
2022/12/28 09:09:11;;;;;;;5.60;4.28;;;8.40;99.90;;;;;;5100618;28;20059;-66
2022/12/28 09:11:39;;;;;;;8.23;4.13;;;8.40;99.90;;;;;;5114476;28;20101;-65
2022/12/28 09:14:07;;;;;;;7.50;4.20;;;8.40;99.90;;;;;;5116696;27;20047;-65
2022/12/28 09:16:37;;;;;;;5.22;4.03;;;8.40;99.90;;;;;;5113551;27;20047;-66
2022/12/28 09:19:05;;;;;;;5.07;4.20;;;8.40;99.90;;;;;;5112409;27;20049;-66
2022/12/28 09:21:34;;;;;;;4.40;3.47;;;8.40;99.90;;;;;;5094837;28;20116;-66
2022/12/28 09:24:01;;;;;;;4.30;3.22;;;8.40;99.90;;;;;;5095039;28;20048;-66
2022/12/28 09:26:30;;;;;;;4.40;3.40;;;8.40;99.90;;;;;;5095045;28;20066;-65
2022/12/28 09:28:59;;;;;;;4.85;4.07;;;8.40;99.90;;;;;;5094438;28;20457;-65
2022/12/28 09:31:28;;;;;;;5.45;3.47;;;8.50;99.90;;;;;;5094245;28;20051;-66
2022/12/28 09:34:00;;;;;;;5.10;4.00;;;8.50;99.90;;;;;;5094043;28;20054;-65
2022/12/28 09:36:29;;;;;;;5.65;4.03;;;8.40;99.90;;;;;;5094714;28;20129;-65
2022/12/28 09:38:57;;;;;;;5.43;4.13;;;8.40;99.90;;;;;;5093734;28;20098;-65
2022/12/28 09:41:28;;;;;;;5.95;4.82;;;8.50;99.90;;;;;;5112537;28;20048;-65
2022/12/28 09:44:03;;;;;;;5.78;4.53;;;8.50;99.90;;;;;;5112993;27;20048;-65
2022/12/28 09:46:33;;;;;;;4.90;3.97;;;8.50;99.90;;;;;;5112871;27;20044;-66
2022/12/28 09:49:04;;;;;;;5.47;4.20;;;8.50;99.90;;;;;;5111651;27;20051;-65
2022/12/28 09:51:35;;;;;;;4.72;3.75;;;8.50;99.90;;;;;;5094559;28;20054;-66
2022/12/28 09:54:04;;;;;;;5.93;4.38;;;8.60;99.90;;;;;;5094124;27;20101;-65
2022/12/28 09:56:35;;;;;;;5.43;4.30;;;8.60;99.90;;;;;;5094098;28;20106;-65
2022/12/28 09:59:04;;;;;;;5.28;4.45;;;8.60;99.90;;;;;;5093510;28;20568;-66
2022/12/28 10:01:32;;;;;;;4.18;3.17;;;8.60;99.90;;;;;;5093832;28;20487;-65
2022/12/28 10:04:02;;;;;;;4.63;3.63;;;8.50;99.90;;;;;;5112915;27;20047;-65
2022/12/28 10:06:34;;;;;;;4.93;4.05;;;8.60;99.90;;;;;;5112938;27;20044;-65
2022/12/28 10:09:03;;;;;;;5.07;3.25;;;8.60;99.90;;;;;;5111265;28;20044;-65
2022/12/28 10:11:33;;;;;;;4.78;3.85;;;8.60;99.90;;;;;;5094175;27;20064;-66
2022/12/28 10:14:01;;;;;;;5.07;3.33;;;8.70;99.90;;;;;;5110975;28;20044;-66
2022/12/28 10:16:31;;;;;;;5.32;3.22;;;8.70;99.90;;;;;;5092804;28;20051;-66
2022/12/28 10:18:59;;;;;;;4.30;3.47;;;8.60;99.90;;;;;;5113920;27;20104;-66
2022/12/28 10:21:32;;;;;;;7.32;3.90;;;8.60;99.90;;;;;;5112931;28;20047;-66
2022/12/28 10:23:59;;;;;;;5.30;3.70;;;8.70;99.90;;;;;;5093124;28;20051;-66
2022/12/28 10:26:27;;;;;;;4.70;3.80;;;8.60;99.90;;;;;;5093685;28;20067;-66
2022/12/28 10:28:58;;;;;;;5.13;3.95;;;8.60;99.90;;;;;;5093261;28;20439;-65
2022/12/28 10:31:32;;;;;;;4.63;3.22;;;8.60;99.90;;;;;;5093243;28;20047;-64
2022/12/28 10:34:00;;;;;;;6.35;4.05;;;8.60;99.90;;;;;;5093461;28;20048;-64
2022/12/28 10:36:32;;;;;;;6.38;4.22;;;8.60;99.90;;;;;;5111798;27;20043;-65
2022/12/28 10:39:01;;;;;;;5.63;4.43;;;8.60;99.90;;;;;;5092479;28;20139;-65
2022/12/28 10:41:35;;;;;;;6.50;5.40;;;8.60;99.90;;;;;;5102580;28;20054;-64
2022/12/28 10:44:15;;;;;;;7.85;5.80;;;8.60;99.90;;;;;;5092575;27;20496;-64
2022/12/28 10:46:52;;;;;;;10.60;7.35;;;8.70;99.90;;;;;;5093322;28;20146;-65
2022/12/28 10:49:20;;;;;;;7.82;6.22;;;8.80;99.90;;;;;;5111337;28;20088;-65
2022/12/28 10:52:01;;;;;;;7.63;5.65;;;8.70;99.90;;;;;;5119142;27;20051;-65
2022/12/28 10:54:30;;;;;;;;;;;8.70;99.90;;;;;;5111676;28;20047;-65
2022/12/28 10:56:57;;;;;;;7.40;5.65;;;8.70;99.90;;;;;;5102715;27;20409;-65
2022/12/28 10:59:26;;;;;;;7.95;5.68;;;8.70;99.90;;;;;;5119532;27;20044;-64
2022/12/28 11:01:55;;;;;;;8.02;5.18;;;8.60;99.90;;;;;;5109929;28;20050;-63
2022/12/28 11:04:24;;;;;;;7.10;5.68;;;8.70;99.90;;;;;;5092769;28;20043;-64
2022/12/28 11:06:53;;;;;;;7.43;5.40;;;8.70;99.90;;;;;;5093885;28;20055;-64
2022/12/28 11:09:25;;;;;;;5.93;4.68;;;8.70;99.90;;;;;;5092877;28;20108;-64
2022/12/28 11:11:55;;;;;;;8.77;4.80;;;8.70;99.90;;;;;;5093195;28;20083;-65
2022/12/28 11:14:30;;;;;;;5.68;4.35;;;8.70;99.90;;;;;;5113017;28;20411;-64
2022/12/28 11:16:57;;;;;;;4.97;3.88;;;8.70;99.90;;;;;;5092933;28;20047;-64
2022/12/28 11:19:25;;;;;;;5.82;4.50;;;8.70;99.90;;;;;;5110326;28;20050;-64
2022/12/28 11:21:53;;;;;;;5.03;3.67;;;8.70;99.90;;;;;;5112098;28;20051;-63
2022/12/28 11:24:25;;;;;;;6.00;4.25;;;8.80;99.90;;;;;;5092447;28;20048;-64
2022/12/28 11:26:53;;;;;;;4.40;3.50;;;8.70;99.90;;;;;;5110683;28;20043;-64
2022/12/28 11:29:20;;;;;;;6.05;3.63;;;8.80;99.90;;;;;;5092620;28;20502;-65
2022/12/28 11:31:53;;;;;;;5.00;3.88;;;8.80;99.90;;;;;;5092298;28;20050;-65
2022/12/28 11:34:25;;;;;;;4.20;3.10;;;8.80;99.90;;;;;;5092664;28;20447;-64
2022/12/28 11:36:52;;;;;;;4.28;3.17;;;8.80;99.90;;;;;;5110750;28;20067;-63
2022/12/28 11:39:44;;;;;;;6.32;3.92;;;8.80;99.90;;;;;;5110757;28;20079;-64
2022/12/28 11:42:11;;;;;;;5.40;2.85;;;8.80;99.90;;;;;;5111372;28;20101;-64
2022/12/28 11:44:53;;;;;;;4.28;2.92;;;8.80;99.90;;;;;;5092676;28;20063;-64
2022/12/28 11:47:31;;;;;;;4.63;3.10;;;8.70;99.90;;;;;;5092003;28;20040;-68
2022/12/28 11:50:32;;;;;;;3.65;2.72;;;8.80;99.90;;;;;;5110583;28;20109;-65
2022/12/28 11:52:59;;;;;;;;;;;8.80;99.90;;;;;;5110840;28;20079;-64
2022/12/28 11:55:44;;;;;;;3.08;2.42;;;8.90;99.90;;;;;;5109321;28;19923;-65
2022/12/28 11:58:34;;;;;;;4.10;2.97;;;8.70;99.90;;;;;;5093172;28;20044;-65
2022/12/28 12:01:02;;;;;;;6.85;3.20;;;8.80;99.90;;;;;;5093701;28;20452;-65
2022/12/28 12:04:02;;;;;;;3.25;2.40;;;8.80;99.90;;;;;;5092040;28;20051;-65
2022/12/28 12:07:03;;;;;;;4.15;2.97;;;8.80;99.90;;;;;;5093012;28;20086;-65
2022/12/28 12:09:42;;;;;;;4.15;3.25;;;8.70;99.90;;;;;;5109614;28;20407;-64
2022/12/28 12:12:35;;;;;;;5.80;3.53;;;8.80;99.90;;;;;;5097761;28;20096;-65
2022/12/28 12:15:10;;;;;;;4.10;3.28;;;8.70;99.90;;;;;;5092174;28;20039;-65
2022/12/28 12:17:43;;;;;;;4.57;3.13;;;8.80;99.90;;;;;;5110409;28;20499;-64
2022/12/28 12:20:23;;;;;;;4.68;3.58;;;8.70;99.90;;;;;;5094560;28;20100;-65
2022/12/28 12:22:56;;;;;;;5.28;3.72;;;8.70;99.90;;;;;;5110763;27;20387;-64
2022/12/28 12:25:32;;;;;;;4.13;3.53;;;8.80;99.90;;;;;;5114370;27;20411;-65
2022/12/28 12:28:06;;;;;;;6.63;3.80;;;8.70;99.90;;;;;;5116749;27;20052;-67
2022/12/28 12:30:33;;;;;;;5.00;3.80;;;8.70;99.90;;;;;;5116132;27;20052;-66
2022/12/28 12:33:03;;;;;;;8.27;4.85;;;8.80;99.90;;;;;;5101517;27;20035;-65
2022/12/28 12:35:38;;;;;;;4.95;4.03;;;8.80;99.90;;;;;;5095469;27;20055;-66
2022/12/28 12:38:12;;;;;;;8.00;3.92;;;8.80;99.90;;;;;;5113810;27;20467;-66
2022/12/28 12:41:00;;;;;;;4.10;3.30;;;8.70;99.90;;;;;;5098828;27;20051;-67
2022/12/28 12:43:36;;;;;;;4.68;3.17;;;8.70;99.90;;;;;;5101044;27;20040;-68
2022/12/28 12:46:33;;;;;;;6.38;4.07;;;8.70;99.90;;;;;;5120226;27;20051;-66
2022/12/28 12:49:28;;;;;;;3.97;3.40;;;8.70;99.90;;;;;;5118674;27;20052;-66
2022/12/28 12:52:05;;;;;;;4.32;3.53;;;8.70;99.90;;;;;;5099623;27;20052;-66
2022/12/28 12:54:42;;;;;;;4.38;3.80;;;8.70;99.90;;;;;;5122660;27;20066;-65
2022/12/28 12:57:15;;;;;;;4.68;3.13;;;8.70;99.90;;;;;;5106066;27;20062;-66
2022/12/28 13:00:03;;;;;;;5.13;3.20;;;8.70;99.90;;;;;;5123467;27;20043;-66
2022/12/28 13:03:01;;;;;;;3.20;2.63;;;8.60;99.90;;;;;;5102248;27;20042;-66
2022/12/28 13:05:30;;;;;;;3.75;2.92;;;8.70;99.90;;;;;;5092106;27;20047;-66
2022/12/28 13:07:58;;;;;;;4.65;4.13;;;8.60;99.90;;;;;;5094782;28;20385;-66
2022/12/28 13:10:30;;;;;;;3.47;2.70;;;8.70;99.90;;;;;;5119635;27;20039;-66
2022/12/28 13:12:59;;;;;;;3.95;2.70;;;8.60;99.90;;;;;;5117352;27;20155;-66
2022/12/28 13:15:28;;;;;;;3.25;2.70;;;8.60;99.90;;;;;;5096874;28;20048;-65
2022/12/28 13:18:00;;;;;;;3.20;2.53;;;8.70;99.90;;;;;;5112796;28;20495;-67
2022/12/28 13:20:27;;;;;;;6.75;3.15;;;8.60;99.90;;;;;;5094212;27;20062;-66
2022/12/28 13:22:55;;;;;;;5.03;3.30;;;8.60;99.90;;;;;;5093971;28;20044;-66
2022/12/28 13:25:30;;;;;;;3.50;2.80;;;8.70;99.90;;;;;;5094797;27;20585;-67
2022/12/28 13:27:59;;;;;;;5.10;4.60;;;8.60;99.90;;;;;;5095055;28;20097;-66
2022/12/28 13:30:29;;;;;;;5.63;3.67;;;8.60;99.90;;;;;;5113023;27;20056;-67
2022/12/28 13:32:58;;;;;;;4.20;3.20;;;8.60;99.90;;;;;;5093701;28;20495;-67
2022/12/28 13:35:27;;;;;;;4.28;3.45;;;8.60;99.90;;;;;;5093853;27;20449;-67